createdAt,value
2018-11-27T00:02:25.113Z,101894.02
2018-11-27T00:05:31.857Z,101893.98
2018-11-27T00:08:37.427Z,101896.14
2018-11-27T00:11:42.980Z,101899.11
2018-11-27T00:14:48.635Z,101893.11
2018-11-27T00:17:54.127Z,101894.82
2018-11-27T00:20:59.532Z,101898.69
2018-11-27T00:24:04.989Z,101903.39
2018-11-27T00:27:10.435Z,101904.66
2018-11-27T00:30:19.352Z,101900.36
2018-11-27T00:33:24.924Z,101901.23
2018-11-27T00:36:30.368Z,101897.80
2018-11-27T00:39:35.796Z,101900.77
2018-11-27T00:42:41.200Z,101908.05
2018-11-27T00:45:46.596Z,101913.11
2018-11-27T00:48:51.967Z,101907.54
2018-11-27T00:51:57.500Z,101906.73
2018-11-27T00:55:02.845Z,101915.27
2018-11-27T00:58:08.296Z,101916.11
2018-11-27T01:01:13.728Z,101917.80
2018-11-27T01:04:19.224Z,101922.94
2018-11-27T01:07:24.641Z,101924.23
2018-11-27T01:10:30.068Z,101920.41
2018-11-27T01:13:35.749Z,101929.80
2018-11-27T01:16:41.174Z,101929.83
2018-11-27T01:19:46.553Z,101933.64
2018-11-27T01:22:52.045Z,101924.27
2018-11-27T01:25:57.431Z,101929.82
2018-11-27T01:29:02.799Z,101931.52
2018-11-27T01:32:08.308Z,101933.69
2018-11-27T01:35:25.269Z,101938.39
2018-11-27T01:38:30.636Z,101937.84
2018-11-27T01:41:36.464Z,101939.14
2018-11-27T01:44:41.911Z,101938.30
2018-11-27T01:47:47.869Z,101939.52
2018-11-27T01:50:53.292Z,101943.85
2018-11-27T01:53:58.716Z,101942.17
2018-11-27T01:57:04.088Z,101944.73
2018-11-27T02:00:16.053Z,101945.20
2018-11-27T02:03:21.580Z,101948.56
2018-11-27T02:06:26.988Z,101959.22
2018-11-27T02:09:32.385Z,101958.83
2018-11-27T02:12:38.620Z,101955.42
2018-11-27T02:15:44.316Z,101950.28
2018-11-27T02:18:49.833Z,101951.56
2018-11-27T02:21:55.364Z,101957.12
2018-11-27T02:25:00.772Z,101957.93
2018-11-27T02:28:06.789Z,101948.97
2018-11-27T02:31:12.177Z,101949.48
2018-11-27T02:34:17.595Z,101952.52
2018-11-27T02:37:23.636Z,101954.28
2018-11-27T02:40:29.359Z,101949.99
2018-11-27T02:43:34.779Z,101959.41
2018-11-27T02:46:40.185Z,101958.14
2018-11-27T02:49:45.652Z,101959.41
2018-11-27T02:52:51.181Z,101961.97
2018-11-27T02:55:56.640Z,101961.11
2018-11-27T02:59:01.988Z,101966.27
2018-11-27T03:02:07.464Z,101966.27
2018-11-27T03:05:31.655Z,101968.83
2018-11-27T03:08:37.050Z,101973.58
2018-11-27T03:11:42.501Z,101970.16
2018-11-27T03:14:47.880Z,101978.72
2018-11-27T03:17:53.675Z,101977.41
2018-11-27T03:20:59.198Z,101975.23
2018-11-27T03:24:04.556Z,101979.95
2018-11-27T03:27:10.009Z,101975.23
2018-11-27T03:30:22.733Z,101981.67
2018-11-27T03:33:28.253Z,101982.13
2018-11-27T03:36:33.904Z,101992.41
2018-11-27T03:39:39.356Z,101989.42
2018-11-27T03:42:44.794Z,101989.42
2018-11-27T03:45:50.208Z,101992.41
2018-11-27T03:48:55.580Z,101995.42
2018-11-27T03:52:03.163Z,101997.61
2018-11-27T03:55:10.152Z,101999.78
2018-11-27T03:58:15.524Z,102005.74
2018-11-27T04:01:21.027Z,102012.18
2018-11-27T04:04:26.383Z,102007.42
2018-11-27T04:07:31.912Z,102006.15
2018-11-27T04:10:38.254Z,102004.46
2018-11-27T04:13:43.796Z,102010.47
2018-11-27T04:16:49.261Z,102016.89
2018-11-27T04:19:54.601Z,102018.17
2018-11-27T04:23:00.143Z,102015.58
2018-11-27T04:26:05.897Z,102013.06
2018-11-27T04:29:11.233Z,102010.45
2018-11-27T04:32:16.631Z,102011.37
2018-11-27T04:35:22.881Z,102011.34
2018-11-27T04:38:28.245Z,102019.91
2018-11-27T04:41:33.698Z,102018.20
2018-11-27T04:44:39.083Z,102015.17
2018-11-27T04:47:44.493Z,102022.48
2018-11-27T04:50:49.932Z,102019.45
2018-11-27T04:53:55.429Z,102019.45
2018-11-27T04:57:00.786Z,102019.89
2018-11-27T05:00:16.084Z,102017.70
2018-11-27T05:03:21.557Z,102024.14
2018-11-27T05:06:26.973Z,102031.41
2018-11-27T05:09:32.576Z,102037.79
2018-11-27T05:12:39.305Z,102030.09
2018-11-27T05:15:44.664Z,102038.59
2018-11-27T05:18:50.100Z,102042.94
2018-11-27T05:21:55.687Z,102030.95
2018-11-27T05:25:01.098Z,102044.19
2018-11-27T05:28:06.753Z,102047.23
2018-11-27T05:31:12.269Z,102046.42
2018-11-27T05:34:17.652Z,102057.97
2018-11-27T05:37:23.011Z,102059.66
2018-11-27T05:40:28.375Z,102063.49
2018-11-27T05:43:33.995Z,102067.79
2018-11-27T05:46:40.008Z,102067.86
2018-11-27T05:49:45.384Z,102067.86
2018-11-27T05:52:50.876Z,102064.47
2018-11-27T05:55:56.664Z,102065.76
2018-11-27T05:59:02.083Z,102069.21
2018-11-27T06:02:07.693Z,102064.95
2018-11-27T06:05:20.139Z,102065.78
2018-11-27T06:08:25.581Z,102063.59
2018-11-27T06:11:31.129Z,102065.30
2018-11-27T06:14:36.573Z,102079.02
2018-11-27T06:17:42.410Z,102086.33
2018-11-27T06:20:47.780Z,102097.87
2018-11-27T06:23:53.508Z,102093.16
2018-11-27T06:26:58.959Z,102096.19
2018-11-27T06:30:06.792Z,102091.02
2018-11-27T06:33:12.353Z,102093.97
2018-11-27T06:36:17.772Z,102098.63
2018-11-27T06:39:23.132Z,102100.80
2018-11-27T06:42:28.666Z,102109.77
2018-11-27T06:45:34.137Z,102109.38
2018-11-27T06:48:39.520Z,102117.45
2018-11-27T06:51:45.000Z,102124.36
2018-11-27T06:54:50.475Z,102118.43
2018-11-27T06:57:55.884Z,102121.83
2018-11-27T07:01:01.382Z,102125.16
2018-11-27T07:04:07.395Z,102133.36
2018-11-27T07:07:12.862Z,102141.51
2018-11-27T07:10:25.729Z,102144.98
2018-11-27T07:13:31.264Z,102158.70
2018-11-27T07:16:36.656Z,102162.10
2018-11-27T07:19:42.089Z,102167.72
2018-11-27T07:22:47.545Z,102173.27
2018-11-27T07:25:52.952Z,102175.42
2018-11-27T07:28:58.998Z,102175.02
2018-11-27T07:32:09.459Z,102179.31
2018-11-27T07:35:14.158Z,102185.27
2018-11-27T07:38:19.620Z,102183.20
2018-11-27T07:41:25.116Z,102188.36
2018-11-27T07:44:30.469Z,102193.96
2018-11-27T07:47:35.836Z,102197.35
2018-11-27T07:50:41.280Z,102200.72
2018-11-27T07:53:46.786Z,102193.85
2018-11-27T07:56:52.260Z,102205.94
2018-11-27T07:59:57.591Z,102212.87
2018-11-27T08:03:03.972Z,102205.56
2018-11-27T08:06:09.448Z,102209.87
2018-11-27T08:09:14.804Z,102212.73
2018-11-27T08:12:20.329Z,102212.00
2018-11-27T08:15:29.706Z,102218.09
2018-11-27T08:18:35.238Z,102224.02
2018-11-27T08:21:40.732Z,102224.05
2018-11-27T08:24:47.257Z,102224.55
2018-11-27T08:27:51.779Z,102232.62
2018-11-27T08:30:57.645Z,102226.28
2018-11-27T08:34:03.065Z,102230.15
2018-11-27T08:37:08.531Z,102236.51
2018-11-27T08:40:16.513Z,102231.86
2018-11-27T08:43:21.913Z,102242.54
2018-11-27T08:46:27.423Z,102242.12
2018-11-27T08:49:32.844Z,102248.06
2018-11-27T08:52:39.561Z,102253.33
2018-11-27T08:55:45.156Z,102254.61
2018-11-27T08:58:50.587Z,102265.80
2018-11-27T09:01:56.129Z,102270.98
2018-11-27T09:05:01.552Z,102279.11
2018-11-27T09:08:07.768Z,102283.42
2018-11-27T09:11:13.564Z,102286.80
2018-11-27T09:14:19.050Z,102288.56
2018-11-27T09:17:24.516Z,102295.50
2018-11-27T09:20:29.920Z,102301.95
2018-11-27T09:23:35.917Z,102312.20
2018-11-27T09:26:41.312Z,102310.89
2018-11-27T09:29:46.782Z,102316.83
2018-11-27T09:32:52.574Z,102311.29
2018-11-27T09:35:57.969Z,102306.61
2018-11-27T09:39:03.813Z,102307.91
2018-11-27T09:42:09.300Z,102315.21
2018-11-27T09:45:21.394Z,102317.39
2018-11-27T09:48:26.949Z,102326.77
2018-11-27T09:51:32.379Z,102322.98
2018-11-27T09:54:37.736Z,102324.70
2018-11-27T09:57:43.191Z,102331.50
2018-11-27T10:00:48.665Z,102330.66
2018-11-27T10:03:55.419Z,102326.02
2018-11-27T10:06:59.536Z,102322.15
2018-11-27T10:10:06.563Z,102324.34
2018-11-27T10:13:11.999Z,102323.09
2018-11-27T10:16:17.416Z,102322.16
2018-11-27T10:19:26.712Z,102317.06
2018-11-27T10:22:28.249Z,102318.75
2018-11-27T10:25:33.669Z,102310.16
2018-11-27T10:28:39.144Z,102316.66
2018-11-27T10:31:44.540Z,102314.55
2018-11-27T10:34:50.016Z,102311.13
2018-11-27T10:37:55.457Z,102305.98
2018-11-27T10:41:01.013Z,102304.27
2018-11-27T10:44:06.827Z,102292.66
2018-11-27T10:47:12.173Z,102302.57
2018-11-27T10:50:18.538Z,102299.12
2018-11-27T10:53:24.357Z,102299.14
2018-11-27T10:56:29.728Z,102305.98
2018-11-27T10:59:35.136Z,102302.57
2018-11-27T11:02:40.600Z,102306.00
2018-11-27T11:05:46.036Z,102307.72
2018-11-27T11:08:51.439Z,102314.20
2018-11-27T11:11:59.238Z,102310.77
2018-11-27T11:15:02.665Z,102313.77
2018-11-27T11:18:08.117Z,102304.33
2018-11-27T11:21:13.719Z,102307.33
2018-11-27T11:24:19.144Z,102314.60
2018-11-27T11:27:24.566Z,102321.05
2018-11-27T11:30:35.285Z,102321.85
2018-11-27T11:33:40.644Z,102308.55
2018-11-27T11:36:46.057Z,102327.42
2018-11-27T11:39:51.505Z,102322.75
2018-11-27T11:42:58.135Z,102329.25
2018-11-27T11:46:03.913Z,102323.66
2018-11-27T11:49:09.392Z,102325.33
2018-11-27T11:52:14.808Z,102327.02
2018-11-27T11:55:21.244Z,102319.20
2018-11-27T11:58:26.580Z,102324.81
2018-11-27T12:01:32.027Z,102329.07
2018-11-27T12:04:37.456Z,102334.66
2018-11-27T12:07:42.872Z,102339.78
2018-11-27T12:10:48.240Z,102342.47
2018-11-27T12:13:53.655Z,102339.41
2018-11-27T12:16:59.040Z,102334.63
2018-11-27T12:20:04.429Z,102331.37
2018-11-27T12:23:11.580Z,102329.84
2018-11-27T12:26:17.031Z,102324.14
2018-11-27T12:29:22.424Z,102324.90
2018-11-27T12:32:27.900Z,102328.30
2018-11-27T12:35:33.369Z,102328.84
2018-11-27T12:38:38.947Z,102332.41
2018-11-27T12:41:44.403Z,102328.98
2018-11-27T12:44:49.816Z,102327.02
2018-11-27T12:47:56.524Z,102336.55
2018-11-27T12:51:01.964Z,102336.05
2018-11-27T12:54:07.804Z,102330.11
2018-11-27T12:57:13.332Z,102318.91
2018-11-27T13:00:22.639Z,102326.66
2018-11-27T13:03:28.049Z,102331.83
2018-11-27T13:06:33.724Z,102319.77
2018-11-27T13:09:39.084Z,102324.95
2018-11-27T13:12:49.024Z,102330.12
2018-11-27T13:15:54.444Z,102334.83
2018-11-27T13:18:59.811Z,102334.40
2018-11-27T13:22:05.953Z,102339.55
2018-11-27T13:25:15.845Z,102334.39
2018-11-27T13:28:21.854Z,102332.70
2018-11-27T13:31:29.741Z,102331.81
2018-11-27T13:34:35.241Z,102341.28
2018-11-27T13:37:40.856Z,102341.28
2018-11-27T13:40:46.328Z,102343.02
2018-11-27T13:43:51.769Z,102338.71
2018-11-27T13:46:58.215Z,102346.45
2018-11-27T13:50:03.646Z,102342.56
2018-11-27T13:53:09.023Z,102347.73
2018-11-27T13:56:14.460Z,102351.59
2018-11-27T13:59:19.951Z,102349.03
2018-11-27T14:02:25.392Z,102347.72
2018-11-27T14:05:31.251Z,102345.98
2018-11-27T14:08:36.727Z,102350.68
2018-11-27T14:11:42.160Z,102348.95
2018-11-27T14:14:47.940Z,102346.83
2018-11-27T14:17:55.283Z,102345.95
2018-11-27T14:21:00.781Z,102348.95
2018-11-27T14:24:06.483Z,102354.14
2018-11-27T14:27:11.874Z,102363.16
2018-11-27T14:30:20.076Z,102362.33
2018-11-27T14:33:25.484Z,102360.20
2018-11-27T14:36:31.040Z,102353.72
2018-11-27T14:39:36.552Z,102358.42
2018-11-27T14:45:46.318Z,102365.76
2018-11-27T14:48:51.757Z,102359.67
2018-11-27T14:51:57.176Z,102353.69
2018-11-27T14:55:02.522Z,102360.55
2018-11-27T14:58:08.105Z,102362.71
2018-11-27T15:01:13.552Z,102364.43
2018-11-27T15:04:18.972Z,102367.03
2018-11-27T15:07:25.132Z,102360.98
2018-11-27T15:10:30.584Z,102360.55
2018-11-27T15:13:36.032Z,102362.22
2018-11-27T15:16:41.513Z,102370.83
2018-11-27T15:19:46.964Z,102371.61
2018-11-27T15:22:52.804Z,102369.08
2018-11-27T15:25:58.225Z,102378.11
2018-11-27T15:29:03.793Z,102376.77
2018-11-27T15:32:09.243Z,102381.05
2018-11-27T15:35:15.250Z,102384.03
2018-11-27T15:38:20.657Z,102387.36
2018-11-27T15:41:26.032Z,102391.95
2018-11-27T15:44:31.486Z,102390.25
2018-11-27T15:47:37.105Z,102397.96
2018-11-27T15:50:42.641Z,102395.78
2018-11-27T15:53:48.099Z,102396.84
2018-11-27T15:56:53.520Z,102401.96
2018-11-27T15:59:59.015Z,102406.61
2018-11-27T16:03:04.756Z,102404.03
2018-11-27T16:06:10.332Z,102408.31
2018-11-27T16:09:15.885Z,102400.11
2018-11-27T16:12:21.304Z,102398.78
2018-11-27T16:15:26.740Z,102403.83
2018-11-27T16:18:32.177Z,102404.20
2018-11-27T16:21:37.680Z,102406.86
2018-11-27T16:24:43.131Z,102407.70
2018-11-27T16:27:48.556Z,102405.16
2018-11-27T16:30:54.637Z,102414.05
2018-11-27T16:34:00.080Z,102411.03
2018-11-27T16:37:06.867Z,102413.63
2018-11-27T16:40:21.803Z,102411.56
2018-11-27T16:43:27.260Z,102413.09
2018-11-27T16:46:32.692Z,102409.98
2018-11-27T16:49:38.071Z,102410.88
2018-11-27T16:52:44.568Z,102415.58
2018-11-27T16:55:50.943Z,102426.61
2018-11-27T16:58:56.533Z,102431.59
2018-11-27T17:02:02.033Z,102433.67
2018-11-27T17:05:08.740Z,102436.70
2018-11-27T17:08:14.772Z,102438.41
2018-11-27T17:11:20.180Z,102439.96
2018-11-27T17:14:25.569Z,102431.44
2018-11-27T17:17:30.991Z,102435.05
2018-11-27T17:20:38.592Z,102439.03
2018-11-27T17:23:44.005Z,102448.81
2018-11-27T17:26:49.364Z,102447.53
2018-11-27T17:29:54.845Z,102446.25
2018-11-27T17:33:00.806Z,102458.69
2018-11-27T17:36:09.116Z,102458.26
2018-11-27T17:39:14.662Z,102457.80
2018-11-27T17:42:20.284Z,102461.47
2018-11-27T17:45:26.405Z,102467.89
2018-11-27T17:48:31.847Z,102463.33
2018-11-27T17:51:37.290Z,102457.02
2018-11-27T17:54:42.940Z,102456.22
2018-11-27T17:57:48.334Z,102451.45
2018-11-27T18:00:53.768Z,102456.98
2018-11-27T18:03:59.161Z,102457.90
2018-11-27T18:07:04.532Z,102466.57
2018-11-27T18:10:11.540Z,102474.98
2018-11-27T18:13:16.881Z,102482.36
2018-11-27T18:16:22.439Z,102478.08
2018-11-27T18:19:27.878Z,102480.14
2018-11-27T18:22:33.405Z,102485.67
2018-11-27T18:25:44.960Z,102489.12
2018-11-27T18:28:50.322Z,102496.39
2018-11-27T18:31:57.373Z,102502.03
2018-11-27T18:35:02.756Z,102502.88
2018-11-27T18:38:08.189Z,102499.42
2018-11-27T18:41:13.712Z,102499.03
2018-11-27T18:44:19.100Z,102509.92
2018-11-27T18:47:24.595Z,102507.54
2018-11-27T18:50:33.037Z,102508.66
2018-11-27T18:53:38.416Z,102509.98
2018-11-27T18:56:43.897Z,102511.76
2018-11-27T18:59:49.262Z,102522.41
2018-11-27T19:02:54.788Z,102522.58
2018-11-27T19:06:00.240Z,102518.74
2018-11-27T19:09:09.572Z,102523.91
2018-11-27T19:12:15.132Z,102521.73
2018-11-27T19:15:26.028Z,102527.72
2018-11-27T19:18:31.462Z,102513.56
2018-11-27T19:21:36.884Z,102520.88
2018-11-27T19:24:42.349Z,102525.11
2018-11-27T19:27:48.108Z,102518.09
2018-11-27T19:30:53.544Z,102523.64
2018-11-27T19:33:59.007Z,102527.63
2018-11-27T19:37:04.369Z,102542.44
2018-11-27T19:40:13.185Z,102546.10
2018-11-27T19:43:18.670Z,102541.34
2018-11-27T19:46:24.053Z,102536.95
2018-11-27T19:49:29.624Z,102535.55
2018-11-27T19:52:35.071Z,102541.63
2018-11-27T19:55:40.631Z,102549.13
2018-11-27T19:58:46.072Z,102557.78
2018-11-27T20:01:51.505Z,102558.47
2018-11-27T20:04:56.871Z,102553.34
2018-11-27T20:08:02.304Z,102551.73
2018-11-27T20:11:08.097Z,102565.92
2018-11-27T20:14:13.536Z,102568.91
2018-11-27T20:17:18.943Z,102566.30
2018-11-27T20:20:27.900Z,102565.83
2018-11-27T20:23:33.352Z,102571.69
2018-11-27T20:26:38.825Z,102573.52
2018-11-27T20:29:44.184Z,102579.70
2018-11-27T20:33:00.406Z,102579.77
2018-11-27T20:36:06.304Z,102578.28
2018-11-27T20:39:11.800Z,102567.65
2018-11-27T20:42:17.149Z,102558.74
2018-11-27T20:45:24.067Z,102563.05
2018-11-27T20:48:29.413Z,102574.20
2018-11-27T20:51:34.784Z,102561.61
2018-11-27T20:54:40.133Z,102563.70
2018-11-27T20:58:00.604Z,102559.05
2018-11-27T21:01:07.344Z,102561.13
2018-11-27T21:04:12.680Z,102549.55
2018-11-27T21:07:18.108Z,102538.20
2018-11-27T21:10:23.557Z,102534.08
2018-11-27T21:13:28.893Z,102538.62
2018-11-27T21:16:34.341Z,102542.23
2018-11-27T21:19:39.769Z,102548.95
2018-11-27T21:22:45.489Z,102555.43
2018-11-27T21:25:56.336Z,102557.28
2018-11-27T21:28:56.535Z,102558.63
2018-11-27T21:32:02.005Z,102551.84
2018-11-27T21:35:09.876Z,102545.81
2018-11-27T21:38:15.359Z,102545.49
2018-11-27T21:41:20.801Z,102549.78
2018-11-27T21:44:26.875Z,102558.95
2018-11-27T21:47:32.423Z,102547.95
2018-11-27T21:50:42.513Z,102542.83
2018-11-27T21:53:47.900Z,102542.08
2018-11-27T21:56:53.255Z,102540.74
2018-11-27T21:59:58.691Z,102541.55
2018-11-27T22:03:04.369Z,102550.94
2018-11-27T22:06:09.828Z,102551.15
2018-11-27T22:09:15.179Z,102546.73
2018-11-27T22:12:20.616Z,102554.47
2018-11-27T22:15:37.007Z,102551.84
2018-11-27T22:18:42.368Z,102558.25
2018-11-27T22:21:47.830Z,102559.27
2018-11-27T22:24:53.263Z,102566.58
2018-11-27T22:27:58.634Z,102565.94
2018-11-27T22:31:04.186Z,102565.78
2018-11-27T22:34:09.544Z,102563.27
2018-11-27T22:37:16.125Z,102563.53
2018-11-27T22:40:24.927Z,102574.27
2018-11-27T22:43:30.389Z,102574.37
2018-11-27T22:46:35.792Z,102584.26
2018-11-27T22:49:41.149Z,102581.69
2018-11-27T22:52:46.529Z,102574.20
2018-11-27T22:55:51.919Z,102579.28
2018-11-27T22:58:57.631Z,102577.56
2018-11-27T23:02:03.388Z,102573.25
2018-11-27T23:05:08.829Z,102570.53
2018-11-27T23:08:14.248Z,102569.23
2018-11-27T23:11:19.608Z,102574.96
2018-11-27T23:14:25.612Z,102569.22
2018-11-27T23:17:30.964Z,102571.12
2018-11-27T23:20:36.665Z,102568.84
2018-11-27T23:23:42.224Z,102570.55
2018-11-27T23:26:47.586Z,102565.07
2018-11-27T23:29:53.065Z,102572.52
2018-11-27T23:32:58.468Z,102581.48
2018-11-27T23:36:03.828Z,102574.50
2018-11-27T23:39:09.389Z,102573.47
2018-11-27T23:42:14.812Z,102574.94
2018-11-27T23:45:24.296Z,102576.03
2018-11-27T23:48:29.622Z,102579.25
2018-11-27T23:51:35.073Z,102586.83
2018-11-27T23:54:40.444Z,102591.16
2018-11-27T23:57:46.188Z,102573.42
